createdAt,value
2023-11-23T00:02:57.948Z,101544.38
2023-11-23T00:06:00.627Z,101563.16
2023-11-23T00:09:04.004Z,101572.91
2023-11-23T00:12:07.230Z,101572.59
2023-11-23T00:15:11.016Z,101571.66
2023-11-23T00:19:02.053Z,101553.03
2023-11-23T00:22:05.086Z,101547.59
2023-11-23T00:25:13.599Z,101540.69
2023-11-23T00:28:17.364Z,101540.84
2023-11-23T00:31:19.937Z,101549.19
2023-11-23T00:34:23.856Z,101553.09
2023-11-23T00:37:30.192Z,101545.94
2023-11-23T00:40:32.856Z,101529.44
2023-11-23T00:43:38.178Z,101539.94
2023-11-23T00:46:40.779Z,101528.84
2023-11-23T00:49:43.123Z,101522.38
2023-11-23T00:52:45.554Z,101530.44
2023-11-23T00:55:48.358Z,101532.13
2023-11-23T00:58:53.383Z,101487.38
2023-11-23T01:01:56.234Z,101513.59
2023-11-23T01:04:59.220Z,101542.84
2023-11-23T01:08:02.092Z,101542.78
2023-11-23T01:11:04.912Z,101519.44
2023-11-23T01:14:09.655Z,101528.13
2023-11-23T01:17:12.202Z,101531.53
2023-11-23T01:20:15.473Z,101525.56
2023-11-23T01:23:18.573Z,101526.47
2023-11-23T01:26:21.451Z,101540.44
2023-11-23T01:29:25.352Z,101538.75
2023-11-23T01:32:31.383Z,101534.59
2023-11-23T01:35:34.157Z,101540.97
2023-11-23T01:38:37.645Z,101542.13
2023-11-23T01:41:40.496Z,101530.53
2023-11-23T01:44:43.450Z,101514.47
2023-11-23T01:47:48.227Z,101509.16
2023-11-23T01:50:51.912Z,101529.63
2023-11-23T01:53:55.688Z,101518.22
2023-11-23T01:57:00.322Z,101522.59
2023-11-23T02:00:04.168Z,101521.19
2023-11-23T02:03:09.979Z,101523.09
2023-11-23T02:06:14.361Z,101517.53
2023-11-23T02:09:18.579Z,101515.97
2023-11-23T02:12:23.446Z,101509.63
2023-11-23T02:15:28.398Z,101493.97
2023-11-23T02:18:42.707Z,101485.72
2023-11-23T02:21:48.018Z,101503.22
2023-11-23T02:24:52.003Z,101488.84
2023-11-23T02:27:56.000Z,101492.81
2023-11-23T02:30:59.151Z,101479.81
2023-11-23T02:34:05.233Z,101472.25
2023-11-23T02:37:10.900Z,101466.50
2023-11-23T02:40:13.534Z,101486.66
2023-11-23T02:43:17.416Z,101490.81
2023-11-23T02:46:23.203Z,101491.75
2023-11-23T02:49:26.389Z,101483.41
2023-11-23T02:52:29.417Z,101503.06
2023-11-23T02:55:32.492Z,101502.03
2023-11-23T02:58:35.408Z,101491.91
2023-11-23T03:01:38.128Z,101477.78
2023-11-23T03:04:40.622Z,101458.19
2023-11-23T03:07:43.351Z,101462.34
2023-11-23T03:10:46.019Z,101450.25
2023-11-23T03:13:49.610Z,101459.59
2023-11-23T03:16:54.025Z,101461.19
2023-11-23T03:19:56.780Z,101466.81
2023-11-23T03:23:00.388Z,101466.25
2023-11-23T03:26:06.971Z,101453.97
2023-11-23T03:29:09.882Z,101450.31
2023-11-23T03:32:12.003Z,101444.94
2023-11-23T03:35:14.604Z,101446.59
2023-11-23T03:38:17.632Z,101455.25
2023-11-23T03:41:19.891Z,101440.31
2023-11-23T03:44:22.817Z,101423.72
2023-11-23T03:47:25.609Z,101426.03
2023-11-23T03:50:27.993Z,101435.88
2023-11-23T03:53:30.715Z,101414.09
2023-11-23T03:56:33.932Z,101420.00
2023-11-23T03:59:36.492Z,101423.22
2023-11-23T04:02:39.953Z,101422.22
2023-11-23T04:05:42.910Z,101413.72
2023-11-23T04:08:49.458Z,101421.25
2023-11-23T04:12:12.892Z,101395.34
2023-11-23T04:15:16.167Z,101405.03
2023-11-23T04:18:23.645Z,101438.66
2023-11-23T04:21:37.435Z,101448.00
2023-11-23T04:24:45.326Z,101406.22
2023-11-23T04:28:00.567Z,101402.53
2023-11-23T04:31:06.814Z,101415.09
2023-11-23T04:34:09.974Z,101442.13
2023-11-23T04:37:16.543Z,101409.63
2023-11-23T04:40:25.151Z,101411.28
2023-11-23T04:43:34.985Z,101410.28
2023-11-23T04:46:39.640Z,101454.47
2023-11-23T04:49:43.750Z,101460.38
2023-11-23T04:52:56.794Z,101439.22
2023-11-23T04:56:08.271Z,101455.69
2023-11-23T04:59:11.950Z,101430.72
2023-11-23T05:02:18.094Z,101435.25
2023-11-23T05:05:21.525Z,101445.72
2023-11-23T05:08:24.096Z,101454.19
2023-11-23T05:11:26.456Z,101452.50
2023-11-23T05:14:29.370Z,101452.81
2023-11-23T05:17:34.449Z,101463.34
2023-11-23T05:20:36.634Z,101473.09
2023-11-23T05:23:38.924Z,101478.56
2023-11-23T05:27:08.534Z,101482.16
2023-11-23T05:30:18.161Z,101443.03
2023-11-23T05:33:26.093Z,101436.75
2023-11-23T05:36:34.543Z,101468.22
2023-11-23T05:39:38.861Z,101448.97
2023-11-23T05:42:54.311Z,101470.81
2023-11-23T05:46:07.554Z,101434.94
2023-11-23T05:49:16.277Z,101481.69
2023-11-23T05:52:19.018Z,101472.56
2023-11-23T05:55:22.299Z,101435.56
2023-11-23T05:58:31.128Z,101478.50
2023-11-23T06:01:36.554Z,101474.50
2023-11-23T06:04:49.230Z,101444.19
2023-11-23T06:07:52.939Z,101472.00
2023-11-23T06:10:55.813Z,101475.66
2023-11-23T06:13:59.601Z,101481.72
2023-11-23T06:17:17.460Z,101450.88
2023-11-23T06:20:24.681Z,101480.94
2023-11-23T06:23:27.427Z,101458.59
2023-11-23T06:26:43.579Z,101479.00
2023-11-23T06:29:50.216Z,101479.00
2023-11-23T06:32:55.569Z,101469.50
2023-11-23T06:36:02.174Z,101467.50
2023-11-23T06:39:17.460Z,101443.53
2023-11-23T06:42:49.052Z,101473.25
2023-11-23T06:45:55.742Z,101429.38
2023-11-23T06:49:02.662Z,101449.34
2023-11-23T06:52:06.360Z,101439.78
2023-11-23T06:55:24.572Z,101451.03
2023-11-23T06:58:34.427Z,101443.53
2023-11-23T07:02:32.496Z,101461.16
2023-11-23T07:06:17.728Z,101413.81
2023-11-23T07:09:26.408Z,101435.19
2023-11-23T07:13:01.579Z,101419.44
2023-11-23T07:20:46.807Z,101441.28
2023-11-23T07:23:50.932Z,101452.69
2023-11-23T07:26:57.475Z,101434.63
2023-11-23T07:30:08.427Z,101430.75
2023-11-23T07:33:21.194Z,101435.69
2023-11-23T07:36:29.658Z,101433.47
2023-11-23T07:39:43.487Z,101462.09
2023-11-23T07:42:47.918Z,101455.94
2023-11-23T07:49:38.096Z,101422.63
2023-11-23T07:53:07.153Z,101418.88
2023-11-23T07:56:12.086Z,101453.63
2023-11-23T07:59:22.832Z,101430.72
2023-11-23T08:02:33.982Z,101435.72
2023-11-23T08:09:20.633Z,101396.16
2023-11-23T08:20:18.021Z,101399.41
2023-11-23T08:23:21.625Z,101408.91
2023-11-23T08:26:39.239Z,101389.59
2023-11-23T08:29:48.336Z,101388.59
2023-11-23T08:33:17.441Z,101387.66
2023-11-23T08:36:42.272Z,101389.88
2023-11-23T08:39:55.679Z,101389.69
2023-11-23T08:43:17.199Z,101386.00
2023-11-23T08:46:24.198Z,101359.22
2023-11-23T08:49:36.236Z,101368.72
2023-11-23T08:53:59.791Z,101394.06
2023-11-23T08:57:16.967Z,101375.19
2023-11-23T09:00:46.985Z,101359.66
2023-11-23T09:11:51.055Z,101363.34
2023-11-23T09:15:23.284Z,101368.31
2023-11-23T09:18:35.728Z,101360.06
2023-11-23T09:21:41.169Z,101351.56
2023-11-23T09:31:51.179Z,101322.09
2023-11-23T09:39:11.123Z,101336.84
2023-11-23T09:42:22.363Z,101328.44
2023-11-23T09:46:59.037Z,101340.25
2023-11-23T09:58:44.805Z,101320.75
2023-11-23T10:02:37.571Z,101303.34
2023-11-23T10:23:37.912Z,101308.22
2023-11-23T10:27:04.434Z,101293.81
2023-11-23T10:30:54.001Z,101269.84
2023-11-23T10:37:57.696Z,101281.88
2023-11-23T10:41:26.271Z,101276.94
2023-11-23T10:45:36.460Z,101276.19
2023-11-23T10:49:09.831Z,101249.25
2023-11-23T10:52:27.762Z,101216.16
2023-11-23T10:56:14.901Z,101245.66
2023-11-23T11:05:57.302Z,101245.41
2023-11-23T11:13:40.939Z,101219.25
2023-11-23T11:17:04.643Z,101219.88
2023-11-23T11:20:43.874Z,101193.91
2023-11-23T11:24:27.543Z,101177.44
2023-11-23T11:27:40.636Z,101154.84
2023-11-23T11:30:45.506Z,101193.63
2023-11-23T11:33:56.050Z,101158.03
2023-11-23T11:37:20.976Z,101152.41
2023-11-23T11:40:38.227Z,101127.69
2023-11-23T11:43:48.916Z,101125.50
2023-11-23T11:59:00.562Z,101132.72
2023-11-23T12:02:09.534Z,101110.00
2023-11-23T12:05:20.005Z,101126.44
2023-11-23T12:08:34.897Z,101119.78
2023-11-23T12:12:17.684Z,101105.81
2023-11-23T12:29:13.399Z,101076.63
2023-11-23T12:32:19.629Z,101083.16
2023-11-23T12:35:22.207Z,101084.88
2023-11-23T12:38:25.801Z,101055.81
2023-11-23T12:41:42.768Z,101035.72
2023-11-23T12:45:00.699Z,101041.25
2023-11-23T12:48:06.688Z,101025.84
2023-11-23T12:51:12.084Z,101027.44
2023-11-23T12:54:22.087Z,101008.75
2023-11-23T12:57:39.280Z,101035.88
2023-11-23T13:00:44.578Z,101008.00
2023-11-23T13:03:58.632Z,101008.13
2023-11-23T13:07:01.939Z,101005.84
2023-11-23T13:10:07.168Z,101009.06
2023-11-23T13:13:10.189Z,101011.66
2023-11-23T13:16:20.561Z,101003.53
2023-11-23T13:19:37.068Z,100992.66
2023-11-23T13:22:47.813Z,100976.25
2023-11-23T13:25:52.441Z,100965.06
2023-11-23T13:28:58.724Z,100973.75
2023-11-23T13:32:04.089Z,100947.13
2023-11-23T13:35:08.788Z,100971.59
2023-11-23T13:38:12.202Z,100969.38
2023-11-23T13:41:16.491Z,100966.34
2023-11-23T13:44:20.057Z,100958.88
2023-11-23T13:47:22.301Z,100954.03
2023-11-23T13:50:26.458Z,100927.47
2023-11-23T13:53:32.349Z,100924.41
2023-11-23T13:56:34.996Z,100924.94
2023-11-23T13:59:38.647Z,100910.78
2023-11-23T14:02:41.422Z,100901.28
2023-11-23T14:05:47.408Z,100905.66
2023-11-23T14:08:50.454Z,100905.66
2023-11-23T14:11:55.943Z,100897.97
2023-11-23T14:15:06.085Z,100891.28
2023-11-23T14:18:12.056Z,100895.28
2023-11-23T14:21:15.385Z,100882.41
2023-11-23T14:24:21.038Z,100876.63
2023-11-23T14:27:27.979Z,100881.94
2023-11-23T14:30:33.128Z,100862.25
2023-11-23T14:36:37.854Z,100856.19
2023-11-23T14:39:41.276Z,100860.03
2023-11-23T14:42:55.910Z,100865.34
2023-11-23T14:46:09.633Z,100863.75
2023-11-23T14:49:12.736Z,100856.91
2023-11-23T14:52:16.721Z,100845.03
2023-11-23T14:55:19.319Z,100838.78
2023-11-23T14:58:22.588Z,100838.91
2023-11-23T15:01:28.057Z,100837.13
2023-11-23T15:04:32.787Z,100826.56
2023-11-23T15:07:36.314Z,100825.03
2023-11-23T15:10:39.646Z,100825.41
2023-11-23T15:13:42.614Z,100827.06
2023-11-23T15:16:47.520Z,100827.75
2023-11-23T15:19:49.836Z,100822.94
2023-11-23T15:22:52.267Z,100817.34
2023-11-23T15:25:55.834Z,100813.50
2023-11-23T15:29:01.011Z,100810.31
2023-11-23T15:32:04.524Z,100780.06
2023-11-23T15:35:17.894Z,100783.25
2023-11-23T15:38:23.837Z,100789.13
2023-11-23T15:41:26.310Z,100792.94
2023-11-23T15:44:30.004Z,100784.69
2023-11-23T15:47:32.123Z,100780.69
2023-11-23T15:50:34.730Z,100784.94
2023-11-23T15:53:38.195Z,100782.34
2023-11-23T15:56:41.132Z,100778.47
2023-11-23T15:59:43.226Z,100773.66
2023-11-23T16:02:46.968Z,100776.25
2023-11-23T16:05:49.925Z,100773.69
2023-11-23T16:08:57.032Z,100769.91
2023-11-23T16:12:04.499Z,100772.44
2023-11-23T16:15:08.334Z,100769.00
2023-11-23T16:18:11.822Z,100760.28
2023-11-23T16:21:18.335Z,100770.78
2023-11-23T16:24:22.003Z,100752.88
2023-11-23T16:27:25.872Z,100764.16
2023-11-23T16:30:28.729Z,100766.44
2023-11-23T16:33:34.151Z,100762.06
2023-11-23T16:36:39.998Z,100766.66
2023-11-23T16:39:43.317Z,100764.19
2023-11-23T16:42:48.207Z,100760.66
2023-11-23T16:45:51.769Z,100748.50
2023-11-23T16:48:56.335Z,100746.16
2023-11-23T16:51:59.625Z,100741.09
2023-11-23T16:55:04.239Z,100735.31
2023-11-23T16:58:07.246Z,100730.50
2023-11-23T17:01:09.751Z,100732.97
2023-11-23T17:04:13.269Z,100744.03
2023-11-23T17:07:16.054Z,100736.75
2023-11-23T17:10:21.911Z,100730.03
2023-11-23T17:13:25.423Z,100722.25
2023-11-23T17:16:30.559Z,100719.34
2023-11-23T17:19:39.644Z,100696.94
2023-11-23T17:22:44.845Z,100698.47
2023-11-23T17:25:49.677Z,100696.00
2023-11-23T17:28:55.757Z,100701.19
2023-11-23T17:31:59.333Z,100684.44
2023-11-23T17:35:03.940Z,100685.50
2023-11-23T17:38:09.064Z,100665.56
2023-11-23T17:41:15.101Z,100650.00
2023-11-23T17:44:19.262Z,100639.94
2023-11-23T17:47:27.243Z,100642.28
2023-11-23T17:50:31.114Z,100625.78
2023-11-23T17:53:38.658Z,100638.78
2023-11-23T17:56:42.645Z,100625.81
2023-11-23T17:59:49.862Z,100601.91
2023-11-23T18:02:54.603Z,100605.22
2023-11-23T18:05:59.578Z,100605.47
2023-11-23T18:09:06.846Z,100604.63
2023-11-23T18:12:11.272Z,100600.78
2023-11-23T18:15:15.818Z,100582.03
2023-11-23T18:18:24.066Z,100579.09
2023-11-23T18:21:29.101Z,100572.75
2023-11-23T18:24:32.712Z,100570.84
2023-11-23T18:27:35.813Z,100572.88
2023-11-23T18:30:39.772Z,100565.13
2023-11-23T18:33:45.067Z,100571.25
2023-11-23T18:36:48.400Z,100568.88
2023-11-23T18:39:52.024Z,100550.28
2023-11-23T18:42:55.281Z,100547.69
2023-11-23T18:45:58.811Z,100554.28
2023-11-23T18:49:04.042Z,100556.66
2023-11-23T18:52:10.200Z,100556.53
2023-11-23T18:55:20.031Z,100559.38
2023-11-23T18:58:22.682Z,100548.41
2023-11-23T19:01:26.052Z,100564.19
2023-11-23T19:04:28.963Z,100543.97
2023-11-23T19:07:38.043Z,100544.66
2023-11-23T19:10:43.252Z,100541.38
2023-11-23T19:13:47.661Z,100537.47
2023-11-23T19:16:51.060Z,100526.06
2023-11-23T19:19:57.020Z,100537.38
2023-11-23T19:23:03.677Z,100530.31
2023-11-23T19:26:08.142Z,100528.34
2023-11-23T19:29:12.545Z,100515.63
2023-11-23T19:32:27.426Z,100504.91
2023-11-23T19:35:31.569Z,100501.13
2023-11-23T19:38:35.998Z,100494.06
2023-11-23T19:41:43.158Z,100492.44
2023-11-23T19:44:51.651Z,100476.78
2023-11-23T19:47:56.056Z,100467.13
2023-11-23T19:50:59.465Z,100460.63
2023-11-23T19:54:07.825Z,100454.38
2023-11-23T19:57:11.683Z,100456.75
2023-11-23T20:00:16.514Z,100446.53
2023-11-23T20:03:21.156Z,100444.88
2023-11-23T20:06:27.519Z,100441.59
2023-11-23T20:09:32.394Z,100425.81
2023-11-23T20:12:35.947Z,100420.88
2023-11-23T20:15:38.786Z,100410.50
2023-11-23T20:18:45.139Z,100400.03
2023-11-23T20:21:48.910Z,100392.34
2023-11-23T20:24:52.535Z,100391.19
2023-11-23T20:27:56.264Z,100386.06
2023-11-23T20:31:01.962Z,100389.84
2023-11-23T20:34:05.839Z,100378.56
2023-11-23T20:37:10.261Z,100379.50
2023-11-23T20:40:13.189Z,100370.56
2023-11-23T20:43:16.638Z,100376.22
2023-11-23T20:46:19.382Z,100380.81
2023-11-23T20:49:22.957Z,100362.00
2023-11-23T20:52:27.937Z,100362.69
2023-11-23T20:55:32.621Z,100360.09
2023-11-23T20:58:36.079Z,100342.09
2023-11-23T21:01:39.931Z,100352.81
2023-11-23T21:04:46.098Z,100319.78
2023-11-23T21:07:49.588Z,100331.31
2023-11-23T21:10:53.988Z,100329.88
2023-11-23T21:13:57.728Z,100321.28
2023-11-23T21:17:01.844Z,100310.81
2023-11-23T21:20:11.202Z,100303.75
2023-11-23T21:23:14.492Z,100316.94
2023-11-23T21:26:17.264Z,100294.22
2023-11-23T21:29:20.144Z,100282.94
2023-11-23T21:32:25.448Z,100270.22
2023-11-23T21:35:33.665Z,100254.28
2023-11-23T21:38:38.586Z,100259.28
2023-11-23T21:41:41.267Z,100255.31
2023-11-23T21:44:44.114Z,100242.38
2023-11-23T21:47:48.657Z,100255.53
2023-11-23T21:50:54.651Z,100251.81
2023-11-23T21:53:58.194Z,100239.97
2023-11-23T21:57:00.790Z,100238.22
2023-11-23T22:00:04.379Z,100242.91
2023-11-23T22:03:06.572Z,100240.56
2023-11-23T22:06:10.377Z,100227.63
2023-11-23T22:09:12.581Z,100210.75
2023-11-23T22:12:15.082Z,100213.41
2023-11-23T22:15:17.946Z,100186.34
2023-11-23T22:18:21.131Z,100168.84
2023-11-23T22:21:25.845Z,100173.66
2023-11-23T22:24:28.804Z,100173.25
2023-11-23T22:27:32.731Z,100166.25
2023-11-23T22:30:39.090Z,100157.50
2023-11-23T22:33:43.116Z,100131.31
2023-11-23T22:36:46.694Z,100140.06
2023-11-23T22:39:49.489Z,100126.03
2023-11-23T22:42:52.411Z,100124.78
2023-11-23T22:45:54.969Z,100117.00
2023-11-23T22:48:57.220Z,100109.25
2023-11-23T22:52:01.857Z,100105.81
2023-11-23T22:55:08.491Z,100115.34
2023-11-23T22:58:10.699Z,100107.31
2023-11-23T23:01:13.227Z,100092.31
2023-11-23T23:04:15.571Z,100088.94
2023-11-23T23:07:21.868Z,100085.78
2023-11-23T23:10:29.081Z,100076.88
2023-11-23T23:13:33.914Z,100075.22
2023-11-23T23:16:36.819Z,100066.25
2023-11-23T23:19:39.000Z,100061.47
2023-11-23T23:22:41.547Z,100061.75
2023-11-23T23:25:45.837Z,100059.16
2023-11-23T23:28:48.768Z,100037.88
2023-11-23T23:31:51.758Z,100051.53
2023-11-23T23:34:54.793Z,100025.63
2023-11-23T23:37:57.392Z,100023.44
2023-11-23T23:41:00.009Z,100016.09
2023-11-23T23:44:05.640Z,100017.97
2023-11-23T23:47:09.270Z,99991.25
2023-11-23T23:50:13.059Z,99983.91
2023-11-23T23:53:15.688Z,99969.69
2023-11-23T23:56:18.495Z,99959.63
2023-11-23T23:59:20.856Z,99957.66
